Time;durP1;ratioP1;P1;durP2;ratioP2;P2;SDS_P1;SDS_P2;PMS_P1;PMS_P2;Temp;Humidity;BMP_temperature;BMP_pressure;BME280_temperature;BME280_humidity;BME280_pressure;Samples;Min_cycle;Max_cycle;Signal;HPM_P1;HPM_P2
2022/10/26 00:00:40;;;;;;;;;;;9.00;99.90;;;;;;5097403;28;19912;-73
2022/10/26 00:03:05;;;;;;;;;;;8.90;99.90;;;;;;5098585;28;19915;-73
2022/10/26 00:05:32;;;;;;;;;;;8.90;99.90;;;;;;5097381;28;20405;-73
2022/10/26 00:07:57;;;;;;;;;;;8.90;99.90;;;;;;5098324;28;19909;-72
2022/10/26 00:10:22;;;;;;;;;;;8.90;99.90;;;;;;5098284;28;20296;-73
2022/10/26 00:12:49;;;;;;;;;;;8.80;99.90;;;;;;5097104;28;20357;-72
2022/10/26 00:15:16;;;;;;;;;;;8.90;99.90;;;;;;5080256;28;19912;-72
2022/10/26 00:17:41;;;;;;;;;;;9.00;99.90;;;;;;5080326;28;19912;-72
2022/10/26 00:20:07;;;;;;;;;;;9.00;99.90;;;;;;5096632;28;19970;-72
2022/10/26 00:22:32;;;;;;;;;;;9.00;99.90;;;;;;5097225;28;20373;-72
2022/10/26 00:24:58;;;;;;;;;;;9.00;99.90;;;;;;5097309;28;20005;-72
2022/10/26 00:27:23;;;;;;;;;;;9.00;99.90;;;;;;5097400;28;19912;-72
2022/10/26 00:29:48;;;;;;;;;;;8.90;99.90;;;;;;5097164;28;19908;-72
2022/10/26 00:32:14;;;;;;;;;;;8.90;99.90;;;;;;5097986;28;19954;-72
2022/10/26 00:34:39;;;;;;;;;;;8.90;99.90;;;;;;5098029;28;20007;-73
2022/10/26 00:37:05;;;;;;;;;;;9.00;99.90;;;;;;5098297;28;19908;-72
2022/10/26 00:39:30;;;;;;;;;;;9.00;99.90;;;;;;5080520;28;20296;-73
2022/10/26 00:41:56;;;;;;;;;;;9.00;99.90;;;;;;5096464;28;19923;-72
2022/10/26 00:44:41;;;;;;;;;;;9.00;99.90;;;;;;5079935;28;20259;-72
2022/10/26 00:47:09;;;;;;;;;;;9.00;99.90;;;;;;5096626;28;19958;-73
2022/10/26 00:49:34;;;;;;;;;;;9.10;99.90;;;;;;5096875;28;20389;-72
2022/10/26 00:52:00;;;;;;;;;;;9.20;99.90;;;;;;5097690;28;19943;-73
2022/10/26 00:54:25;;;;;;;;;;;9.20;99.90;;;;;;5080365;28;19908;-72
2022/10/26 00:56:53;;;;;;;;;;;9.20;99.90;;;;;;5097722;28;19908;-72
2022/10/26 00:59:19;;;;;;;;;;;9.20;99.90;;;;;;5096138;28;20396;-72
2022/10/26 01:01:46;;;;;;;;;;;9.30;99.90;;;;;;5096364;28;19927;-73
2022/10/26 01:04:13;;;;;;;;;;;9.30;99.90;;;;;;5096833;28;19931;-73
2022/10/26 01:06:39;;;;;;;;;;;9.30;99.90;;;;;;5079682;28;19912;-72
2022/10/26 01:09:04;;;;;;;;;;;9.30;99.90;;;;;;5097781;28;20396;-72
2022/10/26 01:11:30;;;;;;;;;;;9.30;99.90;;;;;;5079251;28;19908;-72
2022/10/26 01:13:56;;;;;;;;;;;9.30;99.90;;;;;;5096117;28;20428;-72
2022/10/26 01:16:41;;;;;;;;;;;9.30;99.90;;;;;;5079199;28;20282;-72
2022/10/26 01:19:27;;;;;;;;;;;9.30;99.90;;;;;;5095634;28;19939;-72
2022/10/26 01:22:11;;;;;;;;;;;9.30;99.90;;;;;;5096758;28;20369;-72
2022/10/26 01:24:56;;;;;;;;;;;9.30;99.90;;;;;;5097559;28;19916;-72
2022/10/26 01:27:42;;;;;;;;;;;9.30;99.90;;;;;;5096808;28;19915;-72
2022/10/26 01:30:27;;;;;;;;;;;9.30;99.90;;;;;;5096946;28;19958;-72
2022/10/26 01:33:02;;;;;;;;;;;9.30;99.90;;;;;;5095659;28;19916;-72
2022/10/26 01:35:32;;;;;;;;;;;9.30;99.90;;;;;;5096058;28;19943;-72
2022/10/26 01:38:03;;;;;;;;;;;9.30;99.90;;;;;;5079476;28;20398;-72
2022/10/26 01:40:33;;;;;;;;;;;9.30;99.90;;;;;;5097119;28;19919;-71
2022/10/26 01:43:01;;;;;;;;;;;9.30;99.90;;;;;;5095742;28;19916;-72
2022/10/26 01:45:27;;;;;;;;;;;9.30;99.90;;;;;;5078808;28;20388;-73
2022/10/26 01:47:53;;;;;;;;;;;9.30;99.90;;;;;;5096059;28;19909;-73
2022/10/26 01:50:19;;;;;;;;;;;9.30;99.90;;;;;;5095566;28;20374;-72
2022/10/26 01:52:48;;;;;;;;;;;9.40;99.90;;;;;;5095489;28;20400;-72
2022/10/26 01:55:33;;;;;;;;;;;9.40;99.90;;;;;;5095155;28;19908;-72
2022/10/26 01:58:02;;;;;;;;;;;9.40;99.90;;;;;;5096289;28;19963;-73
2022/10/26 02:00:30;;;;;;;;;;;9.40;99.90;;;;;;5095227;28;19966;-72
2022/10/26 02:03:15;;;;;;;;;;;9.40;99.90;;;;;;5096064;28;20416;-73
2022/10/26 02:05:58;;;;;;;;;;;9.40;99.90;;;;;;5094553;28;20262;-73
2022/10/26 02:08:27;;;;;;;;;;;9.40;99.90;;;;;;5094636;28;19915;-72
2022/10/26 02:13:46;;;;;;;;;;;9.40;99.90;;;;;;5066065;22;19925;-74
2022/10/26 02:16:32;;;;;;;;;;;9.40;99.90;;;;;;5016660;28;20047;-74
2022/10/26 02:19:01;;;;;;;;;;;9.40;99.90;;;;;;5050928;28;19909;-74
2022/10/26 02:21:32;;;;;;;;;;;9.40;99.90;;;;;;5050960;28;20338;-74
2022/10/26 02:23:58;;;;;;;;;;;9.50;99.90;;;;;;5050804;28;19909;-74
2022/10/26 02:26:26;;;;;;;;;;;9.50;99.90;;;;;;5050720;28;19909;-74
2022/10/26 02:28:53;;;;;;;;;;;9.40;99.90;;;;;;5050726;28;19940;-74
2022/10/26 02:31:19;;;;;;;;;;;9.50;99.90;;;;;;5050636;28;20329;-74
2022/10/26 02:33:47;;;;;;;;;;;9.50;99.90;;;;;;5050618;28;20447;-74
2022/10/26 02:36:15;;;;;;;;;;;9.50;99.90;;;;;;5050587;28;19996;-74
2022/10/26 02:38:41;;;;;;;;;;;9.50;99.90;;;;;;5050499;28;20007;-74
2022/10/26 02:41:07;;;;;;;;;;;9.50;99.90;;;;;;5032574;28;19951;-74
2022/10/26 02:43:35;;;;;;;;;;;9.50;99.90;;;;;;5032893;28;19909;-74
2022/10/26 02:46:05;;;;;;;;;;;9.50;99.90;;;;;;5050380;28;19920;-74
2022/10/26 02:48:31;;;;;;;;;;;9.50;99.90;;;;;;5050484;28;20015;-75
2022/10/26 02:51:00;;;;;;;;;;;9.60;99.90;;;;;;5032472;28;19948;-74
2022/10/26 02:53:34;;;;;;;;;;;9.60;99.90;;;;;;5032325;28;20002;-74
2022/10/26 02:56:03;;;;;;;;;;;9.60;99.90;;;;;;5050149;28;19909;-75
2022/10/26 02:58:29;;;;;;;;;;;9.70;99.90;;;;;;5032437;28;20382;-74
2022/10/26 03:00:55;;;;;;;;;;;9.70;99.90;;;;;;5032350;28;19909;-74
2022/10/26 03:03:21;;;;;;;;;;;9.70;99.90;;;;;;5050041;28;19909;-74
2022/10/26 03:05:46;;;;;;;;;;;9.80;99.90;;;;;;5050049;28;19932;-74
2022/10/26 03:08:12;;;;;;;;;;;9.80;99.90;;;;;;5032111;28;20354;-74
2022/10/26 03:10:40;;;;;;;;;;;9.80;99.90;;;;;;5032225;28;19913;-74
2022/10/26 03:13:05;;;;;;;;;;;9.80;99.90;;;;;;5049675;28;19917;-74
2022/10/26 03:15:31;;;;;;;;;;;9.90;99.90;;;;;;5031983;28;19913;-75
2022/10/26 03:17:56;;;;;;;;;;;9.90;99.90;;;;;;5050049;28;19909;-74
2022/10/26 03:20:21;;;;;;;;;;;9.90;99.90;;;;;;5031909;28;19913;-75
2022/10/26 03:22:47;;;;;;;;;;;9.90;99.90;;;;;;5048529;28;19909;-75
2022/10/26 03:25:14;;;;;;;;;;;9.90;99.90;;;;;;5036032;28;19910;-75
2022/10/26 03:27:40;;;;;;;;;;;10.00;99.90;;;;;;5002486;28;20374;-76
2022/10/26 03:30:06;;;;;;;;;;;10.00;99.90;;;;;;5036330;28;19910;-76
2022/10/26 03:32:31;;;;;;;;;;;10.00;99.90;;;;;;5036264;28;19917;-75
2022/10/26 03:34:57;;;;;;;;;;;10.00;99.90;;;;;;5018454;28;19995;-75
2022/10/26 03:37:22;;;;;;;;;;;10.00;99.90;;;;;;5036105;28;20050;-76
2022/10/26 03:39:48;;;;;;;;;;;10.00;99.90;;;;;;5036176;28;19909;-75
2022/10/26 03:42:13;;;;;;;;;;;10.00;99.90;;;;;;5018299;28;19909;-75
2022/10/26 03:44:39;;;;;;;;;;;10.00;99.90;;;;;;5036036;28;19975;-75
2022/10/26 03:47:04;;;;;;;;;;;10.00;99.90;;;;;;5018236;28;19959;-74
2022/10/26 03:49:29;;;;;;;;;;;10.00;99.90;;;;;;5018216;28;19966;-75
2022/10/26 03:51:55;;;;;;;;;;;10.00;99.90;;;;;;5035847;28;19971;-75
2022/10/26 03:54:20;;;;;;;;;;;10.00;99.90;;;;;;5035819;28;19909;-75
2022/10/26 03:56:46;;;;;;;;;;;10.00;99.90;;;;;;5035821;28;20009;-75
2022/10/26 03:59:11;;;;;;;;;;;10.00;99.90;;;;;;5035754;28;19909;-74
2022/10/26 04:01:37;;;;;;;;;;;10.00;99.90;;;;;;5035761;28;19909;-74
2022/10/26 04:04:03;;;;;;;;;;;10.10;99.90;;;;;;5017869;28;20376;-75
2022/10/26 04:06:28;;;;;;;;;;;10.00;99.90;;;;;;5035693;28;20004;-74
2022/10/26 04:09:00;;;;;;;;;;;10.10;99.90;;;;;;5035593;28;20375;-75
2022/10/26 04:11:26;;;;;;;;;;;10.10;99.90;;;;;;5018752;28;19916;-75
2022/10/26 04:13:51;;;;;;;;;;;10.00;99.90;;;;;;5001209;28;19917;-75
2022/10/26 04:16:17;;;;;;;;;;;10.10;99.90;;;;;;5035446;28;19916;-75
2022/10/26 04:18:42;;;;;;;;;;;10.10;99.90;;;;;;5035390;28;20278;-75
2022/10/26 04:21:08;;;;;;;;;;;10.10;99.90;;;;;;5017583;28;19909;-75
2022/10/26 04:23:33;;;;;;;;;;;10.10;99.90;;;;;;5035334;28;19952;-73
2022/10/26 04:25:58;;;;;;;;;;;10.10;99.90;;;;;;5035326;28;19910;-75
2022/10/26 04:28:24;;;;;;;;;;;10.10;99.90;;;;;;5017407;28;19909;-75
2022/10/26 04:30:49;;;;;;;;;;;10.10;99.90;;;;;;5035181;28;19913;-75
2022/10/26 04:33:15;;;;;;;;;;;10.20;99.90;;;;;;5017440;28;20314;-75
2022/10/26 04:35:41;;;;;;;;;;;10.20;99.90;;;;;;5016297;28;19971;-74
2022/10/26 04:38:09;;;;;;;;;;;10.20;99.90;;;;;;5035065;28;19909;-75
2022/10/26 04:40:34;;;;;;;;;;;10.20;99.90;;;;;;5034949;28;20012;-74
2022/10/26 04:43:00;;;;;;;;;;;10.20;99.90;;;;;;5017232;28;20010;-75
2022/10/26 04:45:29;;;;;;;;;;;10.20;99.90;;;;;;5034877;28;19909;-75
2022/10/26 04:48:10;;;;;;;;;;;10.20;99.90;;;;;;5034750;28;20410;-75
2022/10/26 04:50:36;;;;;;;;;;;10.20;99.90;;;;;;5034805;28;20382;-74
2022/10/26 04:53:02;;;;;;;;;;;10.20;99.90;;;;;;5017041;28;19913;-75
2022/10/26 04:55:28;;;;;;;;;;;10.20;99.90;;;;;;5034714;28;19910;-75
2022/10/26 04:57:53;;;;;;;;;;;10.20;99.90;;;;;;5034625;28;19909;-75
2022/10/26 05:00:19;;;;;;;;;;;10.20;99.90;;;;;;5034700;28;20000;-75
2022/10/26 05:02:44;;;;;;;;;;;10.20;99.90;;;;;;5034560;28;20302;-74
2022/10/26 05:05:10;;;;;;;;;;;10.20;99.90;;;;;;5034477;28;19913;-75
2022/10/26 05:07:35;;;;;;;;;;;10.20;99.90;;;;;;5034450;28;20317;-75
2022/10/26 05:10:01;;;;;;;;;;;10.20;99.90;;;;;;5016686;28;19992;-75
2022/10/26 05:12:26;;;;;;;;;;;10.20;99.90;;;;;;5034134;28;19917;-75
2022/10/26 05:14:52;;;;;;;;;;;10.20;99.90;;;;;;5034317;28;20008;-74
2022/10/26 05:17:17;;;;;;;;;;;10.20;99.90;;;;;;5034310;28;19909;-75
2022/10/26 05:19:43;;;;;;;;;;;10.20;99.90;;;;;;5000271;28;19909;-74
2022/10/26 05:22:09;;;;;;;;;;;10.20;99.90;;;;;;5034189;28;20426;-74
2022/10/26 05:24:34;;;;;;;;;;;10.30;99.90;;;;;;5034127;28;20008;-73
2022/10/26 05:27:00;;;;;;;;;;;10.30;99.90;;;;;;5016512;28;19935;-75
2022/10/26 05:29:25;;;;;;;;;;;10.30;99.90;;;;;;5016334;28;19909;-75
2022/10/26 05:31:50;;;;;;;;;;;10.30;99.90;;;;;;5016236;28;19924;-74
2022/10/26 05:34:16;;;;;;;;;;;10.30;99.90;;;;;;5034017;28;19916;-74
2022/10/26 05:36:41;;;;;;;;;;;10.40;99.90;;;;;;5033928;28;19909;-75
2022/10/26 05:39:07;;;;;;;;;;;10.40;99.90;;;;;;5016206;28;19913;-74
2022/10/26 05:41:32;;;;;;;;;;;10.40;99.90;;;;;;5033914;28;19916;-75
2022/10/26 05:43:58;;;;;;;;;;;10.40;99.90;;;;;;5016247;28;20009;-75
2022/10/26 05:46:23;;;;;;;;;;;10.40;99.90;;;;;;5033594;28;19909;-75
2022/10/26 05:48:49;;;;;;;;;;;10.40;99.90;;;;;;5033776;28;19909;-75
2022/10/26 05:51:15;;;;;;;;;;;10.40;99.90;;;;;;5033673;28;19952;-75
2022/10/26 05:53:40;;;;;;;;;;;10.50;99.90;;;;;;5016004;28;20318;-74
2022/10/26 05:56:26;;;;;;;;;;;10.50;99.90;;;;;;5033509;28;19916;-75
2022/10/26 05:58:51;;;;;;;;;;;10.40;99.90;;;;;;5033485;28;20380;-74
2022/10/26 06:01:37;;;;;;;;;;;10.40;99.90;;;;;;5033636;28;20006;-74
2022/10/26 06:04:08;;;;;;;;;;;10.50;99.90;;;;;;5033538;28;19916;-75
2022/10/26 06:06:43;;;;;;;;;;;10.40;99.90;;;;;;5033556;28;19913;-74
2022/10/26 06:09:10;;;;;;;;;;;10.50;99.90;;;;;;5033500;28;19913;-74
2022/10/26 06:11:36;;;;;;;;;;;10.50;99.90;;;;;;5015606;28;20369;-74
2022/10/26 06:14:02;;;;;;;;;;;10.50;99.90;;;;;;5012400;28;19944;-75
2022/10/26 06:16:47;;;;;;;;;;;10.60;99.90;;;;;;4996268;28;19909;-74
2022/10/26 06:19:19;;;;;;;;;;;10.60;99.90;;;;;;5013575;28;20274;-74
2022/10/26 06:21:53;;;;;;;;;;;10.70;99.90;;;;;;5013938;28;19909;-74
2022/10/26 06:24:39;;;;;;;;;;;10.80;99.90;;;;;;5013663;28;19910;-75
2022/10/26 06:27:13;;;;;;;;;;;10.80;99.90;;;;;;5013590;28;19909;-75
2022/10/26 06:29:44;;;;;;;;;;;10.80;99.90;;;;;;5013640;28;19910;-74
2022/10/26 06:32:09;;;;;;;;;;;10.90;99.90;;;;;;5013298;28;19918;-74
2022/10/26 06:34:37;;;;;;;;;;;10.90;99.90;;;;;;5012245;28;19975;-73
2022/10/26 06:37:02;;;;;;;;;;;10.90;99.90;;;;;;5013458;28;19909;-73
2022/10/26 06:39:30;;;;;;;;;;;11.00;99.90;;;;;;5012565;28;20386;-74
2022/10/26 06:41:56;;;;;;;;;;;11.00;99.90;;;;;;5013059;28;19959;-74
2022/10/26 06:44:22;;;;;;;;;;;11.00;99.90;;;;;;5011818;28;19909;-75
2022/10/26 06:47:08;;;;;;;;;;;11.10;99.90;;;;;;5011813;28;19917;-75
2022/10/26 06:49:39;;;;;;;;;;;11.10;99.90;;;;;;5018133;28;19952;-75
2022/10/26 06:52:11;;;;;;;;;;;11.20;99.90;;;;;;5012754;28;19918;-74
2022/10/26 06:54:45;;;;;;;;;;;11.20;99.90;;;;;;5013335;28;20051;-74
2022/10/26 06:57:12;;;;;;;;;;;11.30;99.90;;;;;;5012697;28;20298;-75
2022/10/26 06:59:41;;;;;;;;;;;11.30;99.90;;;;;;5015574;28;20283;-74
2022/10/26 07:02:08;;;;;;;;;;;11.30;99.90;;;;;;5016714;28;19991;-73
2022/10/26 07:04:33;;;;;;;;;;;11.30;99.90;;;;;;5016100;28;19917;-75
2022/10/26 07:06:58;;;;;;;;;;;11.40;99.90;;;;;;5015314;28;19913;-75
2022/10/26 07:09:24;;;;;;;;;;;11.40;99.90;;;;;;5016292;28;20433;-75
2022/10/26 07:11:49;;;;;;;;;;;11.50;99.90;;;;;;5016578;28;19920;-75
2022/10/26 07:14:15;;;;;;;;;;;11.50;99.90;;;;;;5035725;28;19917;-75
2022/10/26 07:16:40;;;;;;;;;;;11.50;99.90;;;;;;5036233;28;19917;-75
2022/10/26 07:19:06;;;;;;;;;;;11.60;99.90;;;;;;5002223;28;19959;-73
2022/10/26 07:21:31;;;;;;;;;;;11.70;99.90;;;;;;5036271;28;19913;-76
2022/10/26 07:23:57;;;;;;;;;;;11.80;99.90;;;;;;5018374;28;19916;-75
2022/10/26 07:26:24;;;;;;;;;;;11.90;99.90;;;;;;5017681;28;19909;-75
2022/10/26 07:28:50;;;;;;;;;;;12.00;99.90;;;;;;5035164;28;20008;-75
2022/10/26 07:31:15;;;;;;;;;;;12.00;99.90;;;;;;5034943;28;19947;-74
2022/10/26 07:33:41;;;;;;;;;;;12.10;99.90;;;;;;5035102;28;19987;-76
2022/10/26 07:36:09;;;;;;;;;;;12.20;99.90;;;;;;5018120;28;19922;-74
2022/10/26 07:38:35;;;;;;;;;;;12.30;99.90;;;;;;5035522;28;20311;-75
2022/10/26 07:41:01;;;;;;;;;;;12.40;99.90;;;;;;5018245;28;20006;-76
2022/10/26 07:43:26;;;;;;;;;;;12.50;99.90;;;;;;5018307;28;19909;-76
2022/10/26 07:45:52;;;;;;;;;;;12.60;99.90;;;;;;5016842;28;19917;-75
2022/10/26 07:48:17;;;;;;;;;;;12.70;99.90;;;;;;5035302;28;19913;-75
2022/10/26 07:50:43;;;;;;;;;;;12.80;99.90;;;;;;5035555;28;19913;-76
2022/10/26 07:53:08;;;;;;;;;;;12.90;99.90;;;;;;5017618;28;19913;-74
2022/10/26 07:55:34;;;;;;;;;;;13.00;99.90;;;;;;5035882;28;19935;-76
2022/10/26 07:57:59;;;;;;;;;;;13.10;99.90;;;;;;5017846;28;19918;-76
2022/10/26 08:00:25;;;;;;;;;;;13.20;99.90;;;;;;5035237;28;19913;-76
2022/10/26 08:02:50;;;;;;;;;;;13.30;99.90;;;;;;5034799;28;20278;-77
2022/10/26 08:05:16;;;;;;;;;;;13.30;99.90;;;;;;5035159;28;20390;-76
2022/10/26 08:07:43;;;;;;;;;;;13.40;99.90;;;;;;5035379;28;20333;-76
2022/10/26 08:10:09;;;;;;;;;;;13.50;99.90;;;;;;5035559;28;20303;-75
2022/10/26 08:12:34;;;;;;;;;;;13.60;99.90;;;;;;5017647;28;20391;-76
2022/10/26 08:15:00;;;;;;;;;;;13.70;99.90;;;;;;5035353;28;19913;-75
2022/10/26 08:17:25;;;;;;;;;;;13.80;99.90;;;;;;5035061;28;19914;-76
2022/10/26 08:19:50;;;;;;;;;;;13.90;99.90;;;;;;5035385;28;19921;-76
2022/10/26 08:22:16;;;;;;;;;;;13.90;99.90;;;;;;5035387;28;19916;-76
2022/10/26 08:24:45;;;;;;;;;;;14.10;99.90;;;;;;5035343;28;19947;-76
2022/10/26 08:27:11;;;;;;;;;;;14.20;99.90;;;;;;5017461;28;19920;-75
2022/10/26 08:29:37;;;;;;;;;;;14.40;99.90;;;;;;5035282;28;20379;-74
2022/10/26 08:32:02;;;;;;;;;;;14.80;99.90;;;;;;5017398;28;19964;-75
2022/10/26 08:34:28;;;;;;;;;;;15.10;99.90;;;;;;5035141;28;19955;-75
2022/10/26 08:36:53;;;;;;;;;;;15.50;99.90;;;;;;5034928;28;19971;-76
2022/10/26 08:39:19;;;;;;;;;;;15.80;99.90;;;;;;5035001;28;19909;-75
2022/10/26 08:41:45;;;;;;;;;;;16.00;99.90;;;;;;5017276;28;19956;-76
2022/10/26 08:44:19;;;;;;;;;;;15.90;99.90;;;;;;5034861;28;19949;-75
2022/10/26 08:46:48;;;;;;;;;;;15.80;99.90;;;;;;5034853;28;19945;-76
2022/10/26 08:49:30;;;;;;;;;;;15.70;99.90;;;;;;5034811;28;19909;-76
2022/10/26 08:51:58;;;;;;;;;;;16.00;99.90;;;;;;5016414;28;20299;-76
2022/10/26 08:54:31;;;;;;;;;;;16.70;99.90;;;;;;5034591;28;19921;-76
2022/10/26 08:56:57;;;;;;;;;;;17.00;99.90;;;;;;5034622;28;19909;-76
2022/10/26 08:59:42;;;;;;;;;;;17.10;99.90;;;;;;5025353;28;19918;-76
2022/10/26 09:02:11;;;;;;;;;;;17.20;99.90;;;;;;5034442;28;19913;-75
2022/10/26 09:04:36;;;;;;;;;;;18.30;99.90;;;;;;5016202;28;20004;-76
2022/10/26 09:07:06;;;;;;;;;;;19.30;99.90;;;;;;5033704;28;20010;-75
2022/10/26 09:09:52;;;;;;;;;;;20.30;99.90;;;;;;5016290;28;19914;-76
2022/10/26 09:12:33;;;;;;;;;;;20.60;99.90;;;;;;5025862;28;20082;-76
2022/10/26 09:15:04;;;;;;;;;;;21.60;99.90;;;;;;5014382;28;19920;-77
2022/10/26 09:17:41;;;;;;;;;;;22.50;99.90;;;;;;5016652;28;20260;-77
2022/10/26 09:20:15;;;;;;;;;;;23.00;99.90;;;;;;5015503;28;19909;-77
2022/10/26 09:23:00;;;;;;;;;;;23.00;99.90;;;;;;5033437;28;20359;-76
2022/10/26 09:25:28;;;;;;;;;;;23.60;99.90;;;;;;5028957;28;20016;-77
2022/10/26 09:27:57;;;;;;;;;;;23.80;99.90;;;;;;5033430;28;19909;-77
2022/10/26 09:30:23;;;;;;;;;;;23.50;99.90;;;;;;5033727;28;20396;-77
2022/10/26 09:32:50;;;;;;;;;;;23.40;99.90;;;;;;5016221;28;20004;-77
2022/10/26 09:38:13;;;;;;;;;;;23.30;99.90;;;;;;5108671;22;19931;-73
2022/10/26 09:40:44;;;;;;;;;;;24.00;99.90;;;;;;5093707;28;20331;-72
2022/10/26 09:43:13;;;;;;;;;;;23.40;99.90;;;;;;5094740;28;19912;-72
2022/10/26 09:45:40;;;;;;;;;;;23.10;99.90;;;;;;5051187;28;19947;-73
2022/10/26 09:48:11;;;;;;;;;;;23.50;99.90;;;;;;5067362;28;19908;-73
2022/10/26 09:50:39;;;;;;;;;;;24.00;99.90;;;;;;5079474;28;20007;-74
2022/10/26 09:53:05;;;;;;;;;;;24.10;99.90;;;;;;5113475;28;19915;-73
2022/10/26 09:55:31;;;;;;;;;;;23.80;99.90;;;;;;5081254;28;19908;-71
2022/10/26 09:58:00;;;;;;;;;;;24.30;99.90;;;;;;5066349;28;19966;-73
2022/10/26 10:00:27;;;;;;;;;;;23.80;99.90;;;;;;5056879;28;19948;-74
2022/10/26 10:02:54;;;;;;;;;;;24.10;99.90;;;;;;5065101;28;19912;-73
2022/10/26 10:05:24;;;;;;;;;;;24.00;99.90;;;;;;5054131;28;19974;-72
2022/10/26 10:07:50;;;;;;;;;;;23.90;99.90;;;;;;5089182;28;20309;-72
2022/10/26 10:10:17;;;;;;;;;;;23.30;99.90;;;;;;5075709;28;19912;-71
2022/10/26 10:12:43;;;;;;;;;;;23.30;99.90;;;;;;5077858;28;19915;-71
2022/10/26 10:15:16;;;;;;;;;;;22.70;99.90;;;;;;5076297;28;19999;-73
2022/10/26 10:17:45;;;;;;;;;;;22.70;99.90;;;;;;5098841;28;19916;-72
2022/10/26 10:20:16;;;;;;;;;;;22.50;99.90;;;;;;5080692;28;19969;-72
2022/10/26 10:22:58;;;;;;;;;;;22.60;99.90;;;;;;5083719;28;19920;-72
2022/10/26 10:25:32;;;;;;;;;;;22.60;99.90;;;;;;5058918;28;20619;-72
2022/10/26 10:27:57;;;;;;;;;;;22.60;99.90;;;;;;5093008;28;20365;-72
2022/10/26 10:30:27;;;;;;;;;;;22.30;99.90;;;;;;5094007;28;19908;-71
2022/10/26 10:33:13;;;;;;;;;;;22.30;99.90;;;;;;5060175;28;20281;-72
2022/10/26 10:35:46;;;;;;;;;;;22.50;99.90;;;;;;5095470;28;19924;-71
2022/10/26 10:38:15;;;;;;;;;;;22.40;99.90;;;;;;5076763;28;20384;-72
2022/10/26 10:40:48;;;;;;;;;;;22.30;99.90;;;;;;5076536;28;19919;-72
2022/10/26 10:43:14;;;;;;;;;;;22.50;99.90;;;;;;5074736;28;19919;-72
2022/10/26 10:45:45;;;;;;;;;;;22.30;99.90;;;;;;5077344;28;20365;-73
2022/10/26 10:48:13;;;;;;;;;;;22.90;99.90;;;;;;5052958;28;19912;-73
2022/10/26 10:50:57;;;;;;;;;;;22.90;99.90;;;;;;5064834;28;19931;-72
2022/10/26 10:53:25;;;;;;;;;;;22.90;99.90;;;;;;5043176;28;19967;-73
2022/10/26 10:56:11;;;;;;;;;;;22.90;99.90;;;;;;5075870;28;19920;-74
2022/10/26 10:58:43;;;;;;;;;;;22.70;99.90;;;;;;5064005;28;20374;-72
2022/10/26 11:01:12;;;;;;;;;;;22.40;99.90;;;;;;5027921;28;19966;-72
2022/10/26 11:03:58;;;;;;;;;;;22.20;99.90;;;;;;5044269;28;19908;-73
2022/10/26 11:06:27;;;;;;;;;;;22.10;99.90;;;;;;5058736;28;19920;-72
2022/10/26 11:09:00;;;;;;;;;;;22.00;99.90;;;;;;5060984;28;19915;-74
2022/10/26 11:11:43;;;;;;;;;;;21.80;99.90;;;;;;5078016;28;19913;-73
2022/10/26 11:14:13;;;;;;;;;;;21.70;99.90;;;;;;5057178;28;20269;-73
2022/10/26 11:16:42;;;;;;;;;;;21.70;99.90;;;;;;5046012;28;19955;-72
2022/10/26 11:19:27;;;;;;;;;;;21.60;99.90;;;;;;5080864;28;19915;-72
2022/10/26 11:21:53;;;;;;;;;;;21.70;99.90;;;;;;5070424;28;19955;-72
2022/10/26 11:24:39;;;;;;;;;;;21.40;99.90;;;;;;5086800;28;19935;-73
2022/10/26 11:27:10;;;;;;;;;;;21.30;99.90;;;;;;5080358;28;19908;-72
2022/10/26 11:29:41;;;;;;;;;;;21.50;99.90;;;;;;5062871;28;19930;-72
2022/10/26 11:32:18;;;;;;;;;;;21.50;99.90;;;;;;5038168;28;19912;-72
2022/10/26 11:34:49;;;;;;;;;;;21.10;99.90;;;;;;5060339;28;20282;-71
2022/10/26 11:37:21;;;;;;;;;;;21.00;99.90;;;;;;5062072;28;20057;-71
2022/10/26 11:40:00;;;;;;;;;;;21.20;99.90;;;;;;5027467;28;20441;-73
2022/10/26 11:42:33;;;;;;;;;;;21.10;99.90;;;;;;5044865;28;19931;-73
2022/10/26 11:45:06;;;;;;;;;;;21.40;99.90;;;;;;5048508;28;19908;-72
2022/10/26 11:47:39;;;;;;;;;;;20.90;99.90;;;;;;5047414;28;19913;-73
2022/10/26 11:50:25;;;;;;;;;;;20.90;99.90;;;;;;5045216;28;19913;-73
2022/10/26 11:52:57;;;;;;;;;;;21.10;99.90;;;;;;5064995;28;20274;-73
2022/10/26 11:55:23;;;;;;;;;;;21.10;99.90;;;;;;5061159;28;19912;-73
2022/10/26 11:57:49;;;;;;;;;;;21.20;99.90;;;;;;5038125;28;20375;-73
2022/10/26 12:00:16;;;;;;;;;;;21.00;99.90;;;;;;5052438;28;19912;-73
2022/10/26 12:02:45;;;;;;;;;;;20.90;99.90;;;;;;5041885;28;19924;-72
2022/10/26 12:07:57;;;;;;;;;;;20.80;99.90;;;;;;5117017;27;19916;-72
2022/10/26 12:10:25;;;;;;;;;;;21.00;99.90;;;;;;5099155;28;19930;-73
2022/10/26 12:12:56;;;;;;;;;;;20.90;99.90;;;;;;5095963;28;19971;-73
2022/10/26 12:15:26;;;;;;;;;;;21.00;99.90;;;;;;5097468;28;20293;-73
2022/10/26 12:17:56;;;;;;;;;;;21.10;99.90;;;;;;5098358;28;20303;-72
2022/10/26 12:20:39;;;;;;;;;;;21.10;99.90;;;;;;5116177;28;19995;-72
2022/10/26 12:23:05;;;;;;;;;;;21.10;99.90;;;;;;5115382;28;19912;-72
2022/10/26 12:25:31;;;;;;;;;;;21.10;99.90;;;;;;5115556;28;19926;-74
2022/10/26 12:27:58;;;;;;;;;;;21.10;99.90;;;;;;5098270;28;19940;-72
2022/10/26 12:30:26;;;;;;;;;;;21.00;99.90;;;;;;5096226;28;19912;-72
2022/10/26 12:32:53;;;;;;;;;;;21.00;99.90;;;;;;5115518;28;20006;-73
2022/10/26 12:35:39;;;;;;;;;;;20.80;99.90;;;;;;5079720;28;19912;-73
2022/10/26 12:38:24;;;;;;;;;;;20.80;99.90;;;;;;5076081;28;19908;-73
2022/10/26 12:43:43;;;;;;;;;;;21.00;99.90;;;;;;5122389;27;20266;-72
2022/10/26 12:48:50;;;;;;;;;;;21.20;99.90;;;;;;5094470;27;20301;-72
2022/10/26 12:54:30;;;;;;;;;;;20.90;99.90;;;;;;5116775;27;19950;-72
2022/10/26 12:57:05;;;;;;;;;;;20.80;99.90;;;;;;5117630;28;20343;-72
2022/10/26 12:59:51;;;;;;;;;;;20.80;99.90;;;;;;5132240;28;19912;-72
2022/10/26 13:02:36;;;;;;;;;;;21.00;99.90;;;;;;5116298;27;19915;-72
2022/10/26 13:07:40;;;;;;;;;;;21.10;99.90;;;;;;5159060;27;19911;-72
2022/10/26 13:10:16;;;;;;;;;;;21.20;99.90;;;;;;5138816;27;20384;-72
2022/10/26 13:12:47;;;;;;;;;;;21.00;99.90;;;;;;5138704;27;19912;-73
2022/10/26 13:15:28;;;;;;;;;;;20.90;99.90;;;;;;5138155;27;19907;-71
2022/10/26 13:18:16;;;;;;;;;;;20.90;99.90;;;;;;5120368;27;19918;-73
2022/10/26 13:21:02;;;;;;;;;;;20.80;99.90;;;;;;5156197;27;19950;-73
2022/10/26 13:23:30;;;;;;;;;;;20.70;99.90;;;;;;5155819;27;19914;-74
2022/10/26 13:26:16;;;;;;;;;;;20.70;99.90;;;;;;5139109;27;19942;-73
2022/10/26 13:28:44;;;;;;;;;;;20.70;99.90;;;;;;5155771;27;20295;-74
2022/10/26 13:31:30;;;;;;;;;;;20.80;99.90;;;;;;5121579;27;19912;-73
2022/10/26 13:33:57;;;;;;;;;;;20.70;99.90;;;;;;5136384;27;19907;-73
2022/10/26 13:36:33;;;;;;;;;;;20.70;99.90;;;;;;5154752;27;19914;-73
2022/10/26 13:39:03;;;;;;;;;;;20.60;99.90;;;;;;5137582;27;19914;-73
2022/10/26 13:41:33;;;;;;;;;;;20.60;99.90;;;;;;5136729;27;20407;-73
2022/10/26 13:44:02;;;;;;;;;;;20.60;99.90;;;;;;5155284;27;19914;-73
2022/10/26 13:46:28;;;;;;;;;;;20.60;99.90;;;;;;5138738;27;19916;-73
2022/10/26 13:48:59;;;;;;;;;;;20.60;99.90;;;;;;5120496;27;19915;-73
2022/10/26 13:51:29;;;;;;;;;;;20.50;99.90;;;;;;5119343;27;19907;-73
2022/10/26 13:54:05;;;;;;;;;;;20.50;99.90;;;;;;5155675;27;19908;-73
2022/10/26 13:56:34;;;;;;;;;;;20.40;99.90;;;;;;5154899;27;20467;-73
2022/10/26 13:59:02;;;;;;;;;;;20.20;99.90;;;;;;5137064;27;19915;-73
2022/10/26 14:01:28;;;;;;;;;;;20.20;99.90;;;;;;5135901;27;19911;-73
2022/10/26 14:03:54;;;;;;;;;;;20.20;99.90;;;;;;5136505;27;19929;-73
2022/10/26 14:06:24;;;;;;;;;;;20.20;99.90;;;;;;5135881;27;20261;-73
2022/10/26 14:08:51;;;;;;;;;;;20.20;99.90;;;;;;5137376;27;19908;-72
2022/10/26 14:11:18;;;;;;;;;;;20.20;99.90;;;;;;5119043;27;19908;-72
2022/10/26 14:13:44;;;;;;;;;;;20.10;99.90;;;;;;5136459;27;19907;-72
2022/10/26 14:16:10;;;;;;;;;;;20.10;99.90;;;;;;5155859;27;20295;-73
2022/10/26 14:18:35;;;;;;;;;;;20.10;99.90;;;;;;5125352;27;19908;-72
2022/10/26 14:21:04;;;;;;;;;;;20.20;99.90;;;;;;5122648;27;19911;-71
2022/10/26 14:23:44;;;;;;;;;;;20.20;99.90;;;;;;5122320;27;20006;-72
2022/10/26 14:26:17;;;;;;;;;;;20.20;99.90;;;;;;5121962;27;20399;-73
2022/10/26 14:28:46;;;;;;;;;;;20.20;99.90;;;;;;5122797;27;19933;-72
2022/10/26 14:31:19;;;;;;;;;;;20.20;99.90;;;;;;5141508;27;20333;-73
2022/10/26 14:33:44;;;;;;;;;;;20.20;99.90;;;;;;5105459;27;19907;-73
2022/10/26 14:36:10;;;;;;;;;;;20.20;99.90;;;;;;5105300;27;19971;-72
2022/10/26 14:38:41;;;;;;;;;;;20.10;99.90;;;;;;5121819;27;19908;-72
2022/10/26 14:41:07;;;;;;;;;;;20.10;99.90;;;;;;5121208;27;20418;-72
2022/10/26 14:43:32;;;;;;;;;;;20.20;99.90;;;;;;5121792;27;19907;-74
2022/10/26 14:45:58;;;;;;;;;;;20.20;99.90;;;;;;5122898;27;19911;-73
2022/10/26 14:48:29;;;;;;;;;;;20.10;99.90;;;;;;5140075;27;19908;-73
2022/10/26 14:50:57;;;;;;;;;;;20.10;99.90;;;;;;5122323;27;20045;-73
2022/10/26 14:53:27;;;;;;;;;;;20.10;99.90;;;;;;5138510;27;20317;-73